Terminal Aerodrome Forecast
Issued by NWS North Platte, NE

Home | Current Version | Previous Version | Text Only | Print | Product List | Glossary On
Versions: 1 2 3 4 5 6 7 8 9 10 11 12 13 14 15 16 17 18 19 20
000
FTUS43 KLBF 240500
TAFLBF
TAF
KLBF 240520Z 2406/2506 09013KT P6SM OVC005
     FM240700 09012KT 3SM BR OVC005
      TEMPO 2407/2409 3SM -SHRA BR OVC005
     FM241000 14005KT 1SM -DZ BR OVC002
     FM241600 16006KT 5SM BR OVC005
     FM241800 17008KT P6SM BKN035
     FM250200 15006KT P6SM BKN025=

USA.gov is the U.S. government's official web portal to all federal, state and local government web resources and services.